createdAt,value
2018-05-01T00:00:24.420Z,11.16
2018-05-01T00:01:34.290Z,11.21
2018-05-01T00:02:44.429Z,11.17
2018-05-01T00:03:54.443Z,11.13
2018-05-01T00:05:04.627Z,11.12
2018-05-01T00:06:14.813Z,11.09
2018-05-01T00:07:25.024Z,11.06
2018-05-01T00:08:35.168Z,10.97
2018-05-01T00:09:45.314Z,10.97
2018-05-01T00:10:55.228Z,10.98
2018-05-01T00:12:05.517Z,10.91
2018-05-01T00:13:15.471Z,10.88
2018-05-01T00:14:25.691Z,10.92
2018-05-01T00:15:35.849Z,10.88
2018-05-01T00:16:45.997Z,10.84
2018-05-01T00:17:56.120Z,10.88
2018-05-01T00:19:06.269Z,10.83
2018-05-01T00:20:16.591Z,10.83
2018-05-01T00:21:26.799Z,10.8
2018-05-01T00:22:36.689Z,10.87
2018-05-01T00:23:46.560Z,10.83
2018-05-01T00:24:56.696Z,10.87
2018-05-01T00:26:06.845Z,10.8
2018-05-01T00:27:16.994Z,10.8
2018-05-01T00:28:27.134Z,10.85
2018-05-01T00:29:37.296Z,10.83
2018-05-01T00:30:47.443Z,10.79
2018-05-01T00:31:57.582Z,10.84
2018-05-01T00:33:07.703Z,10.84
2018-05-01T00:34:17.571Z,10.77
2018-05-01T00:35:27.909Z,10.77
2018-05-01T00:36:38.061Z,10.75
2018-05-01T00:37:48.232Z,10.69
2018-05-01T00:38:58.358Z,10.67
2018-05-01T00:40:09.453Z,10.69
2018-05-01T00:41:19.629Z,10.73
2018-05-01T00:42:29.763Z,10.67
2018-05-01T00:43:40.026Z,10.72
2018-05-01T00:44:50.223Z,10.69
2018-05-01T00:46:00.384Z,10.7
2018-05-01T00:47:10.350Z,10.7
2018-05-01T00:48:20.478Z,10.61
2018-05-01T00:49:30.361Z,10.63
2018-05-01T00:50:40.240Z,10.57
2018-05-01T00:51:50.360Z,10.61
2018-05-01T00:53:00.739Z,10.57
2018-05-01T00:54:10.683Z,10.58
2018-05-01T00:55:20.848Z,10.57
2018-05-01T00:56:30.728Z,10.48
2018-05-01T00:57:40.869Z,10.45
2018-05-01T00:58:51.002Z,10.45
2018-05-01T01:00:01.143Z,10.4
2018-05-01T01:01:11.345Z,10.34
2018-05-01T01:02:21.484Z,10.34
2018-05-01T01:03:31.640Z,10.21
2018-05-01T01:04:42.887Z,10.26
2018-05-01T01:05:53.018Z,10.32
2018-05-01T01:07:03.136Z,10.33
2018-05-01T01:08:12.976Z,10.33
2018-05-01T01:09:23.108Z,10.32
2018-05-01T01:10:33.265Z,10.17
2018-05-01T01:11:43.385Z,10.15
2018-05-01T01:12:53.288Z,10.32
2018-05-01T01:14:03.445Z,10.18
2018-05-01T01:15:13.693Z,10.18
2018-05-01T01:16:23.306Z,10.24
2018-05-01T01:17:33.171Z,10.13
2018-05-01T01:18:43.364Z,10.21
2018-05-01T01:19:53.575Z,10.21
2018-05-01T01:21:03.760Z,10.18
2018-05-01T01:22:14.022Z,10.18
2018-05-01T01:23:23.883Z,10.11
2018-05-01T01:24:34.023Z,10.1
2018-05-01T01:25:43.944Z,10.08
2018-05-01T01:26:54.066Z,10.19
2018-05-01T01:28:04.187Z,10.17
2018-05-01T01:29:14.317Z,10.18
2018-05-01T01:30:24.560Z,10.21
2018-05-01T01:31:34.778Z,10.15
2018-05-01T01:32:44.944Z,10.18
2018-05-01T01:33:55.153Z,10.15
2018-05-01T01:35:05.302Z,10.13
2018-05-01T01:36:15.440Z,10.17
2018-05-01T01:37:25.381Z,10.21
2018-05-01T01:38:36.509Z,10.11
2018-05-01T01:39:46.695Z,10.19
2018-05-01T01:40:57.023Z,10.15
2018-05-01T01:42:07.298Z,10.26
2018-05-01T01:43:17.484Z,10.26
2018-05-01T01:44:27.609Z,10.18
2018-05-01T01:45:37.751Z,10.26
2018-05-01T01:46:47.883Z,10.17
2018-05-01T01:47:58.014Z,10.3
2018-05-01T01:49:08.171Z,10.19
2018-05-01T01:50:18.314Z,10.21
2018-05-01T01:51:28.530Z,10.22
2018-05-01T01:52:38.808Z,10.24
2018-05-01T01:53:48.948Z,10.15
2018-05-01T01:54:58.847Z,10.08
2018-05-01T01:56:08.988Z,10.19
2018-05-01T01:57:19.166Z,10.11
2018-05-01T01:58:29.338Z,10.18
2018-05-01T01:59:39.477Z,10.1
2018-05-01T02:00:49.628Z,10.13
2018-05-01T02:01:59.487Z,10.11
2018-05-01T02:03:09.678Z,10.11
2018-05-01T02:04:19.796Z,10.1
2018-05-01T02:05:29.917Z,10.13
2018-05-01T02:06:40.044Z,10.11
2018-05-01T02:07:50.194Z,10.18
2018-05-01T02:09:00.376Z,10.13
2018-05-01T02:10:10.505Z,10.11
2018-05-01T02:11:20.648Z,9.99
2018-05-01T02:12:30.776Z,10.11
2018-05-01T02:13:40.908Z,10.15
2018-05-01T02:14:51.046Z,10.02
2018-05-01T02:16:01.003Z,9.99
2018-05-01T02:17:11.118Z,10.1
2018-05-01T02:18:21.255Z,9.95
2018-05-01T02:19:31.203Z,10.02
2018-05-01T02:20:41.328Z,10.05
2018-05-01T02:21:51.478Z,10.02
2018-05-01T02:23:01.615Z,10
2018-05-01T02:24:11.876Z,10.02
2018-05-01T02:25:21.803Z,10.02
2018-05-01T02:26:32.000Z,10.02
2018-05-01T02:27:42.144Z,10.1
2018-05-01T02:28:52.266Z,10.02
2018-05-01T02:30:02.464Z,9.99
2018-05-01T02:31:12.692Z,10.1
2018-05-01T02:32:22.957Z,10.02
2018-05-01T02:33:33.158Z,10
2018-05-01T02:34:43.386Z,10
2018-05-01T02:35:53.521Z,10
2018-05-01T02:37:03.422Z,10
2018-05-01T02:38:13.033Z,10.03
2018-05-01T02:39:23.238Z,10.03
2018-05-01T02:40:33.450Z,9.99
2018-05-01T02:41:43.588Z,9.92
2018-05-01T02:42:53.713Z,9.91
2018-05-01T02:44:03.836Z,9.88
2018-05-01T02:45:14.048Z,9.92
2018-05-01T02:46:24.242Z,9.95
2018-05-01T02:47:34.399Z,9.93
2018-05-01T02:48:45.255Z,9.89
2018-05-01T02:49:55.381Z,9.85
2018-05-01T02:51:05.542Z,9.88
2018-05-01T02:52:15.688Z,9.81
2018-05-01T02:53:25.835Z,9.81
2018-05-01T02:54:36.005Z,9.8
2018-05-01T02:55:46.122Z,9.75
2018-05-01T02:56:56.280Z,9.78
2018-05-01T02:58:05.897Z,9.71
2018-05-01T02:59:16.026Z,9.7
2018-05-01T03:00:26.205Z,9.78
2018-05-01T03:01:36.401Z,9.8
2018-05-01T03:02:46.560Z,9.77
2018-05-01T03:03:56.675Z,9.71
2018-05-01T03:05:06.823Z,9.8
2018-05-01T03:06:16.986Z,9.63
2018-05-01T03:07:27.126Z,9.63
2018-05-01T03:08:37.385Z,9.66
2018-05-01T03:09:47.706Z,9.6
2018-05-01T03:10:57.803Z,9.62
2018-05-01T03:12:08.053Z,9.62
2018-05-01T03:13:18.400Z,9.55
2018-05-01T03:14:28.605Z,9.52
2018-05-01T03:15:38.755Z,9.53
2018-05-01T03:16:48.902Z,9.53
2018-05-01T03:17:59.079Z,9.52
2018-05-01T03:19:09.219Z,9.44
2018-05-01T03:20:19.388Z,9.35
2018-05-01T03:21:29.552Z,9.41
2018-05-01T03:22:39.694Z,9.35
2018-05-01T03:23:49.814Z,9.53
2018-05-01T03:24:59.939Z,9.4
2018-05-01T03:26:10.139Z,9.38
2018-05-01T03:27:20.019Z,9.38
2018-05-01T03:28:30.215Z,9.41
2018-05-01T03:29:40.403Z,9.42
2018-05-01T03:30:50.577Z,9.41
2018-05-01T03:32:00.761Z,9.44
2018-05-01T03:33:10.629Z,9.4
2018-05-01T03:34:20.502Z,9.4
2018-05-01T03:35:30.657Z,9.37
2018-05-01T03:36:40.850Z,9.38
2018-05-01T03:37:51.011Z,9.37
2018-05-01T03:39:01.332Z,9.34
2018-05-01T03:40:11.366Z,9.29
2018-05-01T03:41:21.584Z,9.34
2018-05-01T03:42:31.730Z,9.34
2018-05-01T03:43:41.859Z,9.25
2018-05-01T03:44:51.976Z,9.3
2018-05-01T03:46:02.105Z,9.27
2018-05-01T03:47:11.985Z,9.3
2018-05-01T03:48:22.125Z,9.3
2018-05-01T03:49:32.309Z,9.3
2018-05-01T03:50:42.493Z,9.29
2018-05-01T03:51:52.676Z,9.27
2018-05-01T03:53:02.858Z,9.26
2018-05-01T03:54:13.078Z,9.29
2018-05-01T03:55:23.362Z,9.26
2018-05-01T03:56:33.621Z,9.22
2018-05-01T03:57:43.781Z,9.29
2018-05-01T03:58:53.670Z,9.23
2018-05-01T04:00:03.923Z,9.26
2018-05-01T04:01:14.047Z,9.26
2018-05-01T04:02:23.932Z,9.23
2018-05-01T04:03:34.074Z,9.22
2018-05-01T04:04:44.241Z,9.17
2018-05-01T04:05:54.387Z,9.26
2018-05-01T04:07:04.250Z,9.16
2018-05-01T04:08:14.369Z,9.15
2018-05-01T04:09:24.237Z,9.17
2018-05-01T04:10:34.369Z,9.2
2018-05-01T04:11:44.230Z,9.23
2018-05-01T04:12:54.369Z,9.23
2018-05-01T04:14:04.504Z,9.19
2018-05-01T04:15:14.639Z,9.26
2018-05-01T04:16:24.803Z,9.25
2018-05-01T04:17:34.998Z,9.17
2018-05-01T04:18:44.910Z,9.17
2018-05-01T04:19:55.033Z,9.22
2018-05-01T04:21:04.906Z,9.26
2018-05-01T04:22:15.017Z,9.3
2018-05-01T04:23:25.182Z,9.3
2018-05-01T04:24:35.081Z,9.26
2018-05-01T04:25:45.327Z,9.33
2018-05-01T04:26:55.491Z,9.37
2018-05-01T04:28:05.646Z,9.35
2018-05-01T04:29:15.958Z,9.38
2018-05-01T04:30:26.096Z,9.47
2018-05-01T04:31:35.975Z,9.42
2018-05-01T04:32:46.104Z,9.41
2018-05-01T04:33:56.225Z,9.52
2018-05-01T04:35:05.725Z,9.42
2018-05-01T04:36:15.922Z,9.48
2018-05-01T04:37:25.697Z,9.41
2018-05-01T04:38:35.823Z,9.44
2018-05-01T04:39:45.689Z,9.42
2018-05-01T04:40:55.867Z,9.42
2018-05-01T04:42:05.818Z,9.37
2018-05-01T04:43:15.693Z,9.4
2018-05-01T04:44:25.583Z,9.38
2018-05-01T04:45:35.715Z,9.45
2018-05-01T04:46:45.864Z,9.45
2018-05-01T04:47:56.074Z,9.42
2018-05-01T04:49:06.207Z,9.44
2018-05-01T04:50:16.335Z,9.42
2018-05-01T04:51:26.732Z,9.4
2018-05-01T04:52:36.874Z,9.41
2018-05-01T04:53:47.044Z,9.3
2018-05-01T04:54:57.285Z,9.37
2018-05-01T04:56:07.447Z,9.34
2018-05-01T04:57:17.575Z,9.29
2018-05-01T04:58:27.209Z,9.22
2018-05-01T04:59:37.493Z,9.2
2018-05-01T05:00:47.609Z,9.29
2018-05-01T05:01:57.749Z,9.23
2018-05-01T05:03:07.915Z,9.2
2018-05-01T05:04:18.088Z,9.27
2018-05-01T05:05:27.938Z,9.23
2018-05-01T05:06:38.125Z,9.16
2018-05-01T05:07:48.384Z,9.15
2018-05-01T05:08:58.596Z,9.15
2018-05-01T05:10:08.743Z,9.11
2018-05-01T05:11:18.963Z,9.16
2018-05-01T05:12:28.847Z,9.04
2018-05-01T05:13:38.712Z,9
2018-05-01T05:14:48.636Z,9.04
2018-05-01T05:15:58.825Z,9.01
2018-05-01T05:17:09.081Z,8.92
2018-05-01T05:18:19.260Z,8.93
2018-05-01T05:19:29.408Z,8.95
2018-05-01T05:20:39.319Z,8.92
2018-05-01T05:21:49.470Z,8.95
2018-05-01T05:22:59.685Z,8.89
2018-05-01T05:24:09.884Z,8.9
2018-05-01T05:25:20.104Z,8.77
2018-05-01T05:26:30.227Z,8.83
2018-05-01T05:27:40.337Z,8.87
2018-05-01T05:28:50.455Z,8.71
2018-05-01T05:30:00.608Z,8.83
2018-05-01T05:31:10.776Z,8.79
2018-05-01T05:32:20.970Z,8.87
2018-05-01T05:33:31.138Z,8.71
2018-05-01T05:34:41.032Z,8.84
2018-05-01T05:35:51.194Z,8.92
2018-05-01T05:37:01.132Z,8.98
2018-05-01T05:38:11.263Z,8.92
2018-05-01T05:39:21.440Z,8.89
2018-05-01T05:40:31.207Z,8.93
2018-05-01T05:41:41.341Z,8.93
2018-05-01T05:42:51.854Z,8.93
2018-05-01T05:44:02.000Z,8.93
2018-05-01T05:45:12.120Z,8.89
2018-05-01T05:46:22.252Z,8.95
2018-05-01T05:47:32.380Z,8.92
2018-05-01T05:48:42.494Z,8.89
2018-05-01T05:49:52.805Z,9.01
2018-05-01T05:51:03.048Z,9.01
2018-05-01T05:52:13.279Z,9.02
2018-05-01T05:53:23.483Z,9.02
2018-05-01T05:54:33.743Z,9.07
2018-05-01T05:55:44.009Z,9.07
2018-05-01T05:56:54.185Z,8.9
2018-05-01T05:58:04.345Z,9.01
2018-05-01T05:59:14.510Z,9
2018-05-01T06:00:24.676Z,9.12
2018-05-01T06:01:34.796Z,9.09
2018-05-01T06:02:44.931Z,9.16
2018-05-01T06:03:55.096Z,9.12
2018-05-01T06:05:05.292Z,9.12
2018-05-01T06:06:15.462Z,8.98
2018-05-01T06:07:25.753Z,9.09
2018-05-01T06:08:35.996Z,9.08
2018-05-01T06:09:46.244Z,9.11
2018-05-01T06:10:56.140Z,9.26
2018-05-01T06:12:06.302Z,9.23
2018-05-01T06:13:16.440Z,9.25
2018-05-01T06:14:26.553Z,9.23
2018-05-01T06:15:37.681Z,9.26
2018-05-01T06:16:47.886Z,9.2
2018-05-01T06:17:58.087Z,9.22
2018-05-01T06:19:08.277Z,9.19
2018-05-01T06:20:18.168Z,9.26
2018-05-01T06:21:28.368Z,9.15
2018-05-01T06:22:38.248Z,9.15
2018-05-01T06:23:48.364Z,9.17
2018-05-01T06:24:58.485Z,9.11
2018-05-01T06:26:08.453Z,9.11
2018-05-01T06:27:18.081Z,9
2018-05-01T06:28:28.223Z,9.07
2018-05-01T06:29:38.404Z,9.01
2018-05-01T06:30:48.535Z,8.93
2018-05-01T06:31:58.676Z,9
2018-05-01T06:33:08.812Z,9
2018-05-01T06:34:18.964Z,9.07
2018-05-01T06:35:29.147Z,9.12
2018-05-01T06:36:39.474Z,9.07
2018-05-01T06:37:49.623Z,9.16
2018-05-01T06:38:59.496Z,9.2
2018-05-01T06:40:09.642Z,9.15
2018-05-01T06:41:19.776Z,9.11
2018-05-01T06:42:29.931Z,9.05
2018-05-01T06:43:40.227Z,9.08
2018-05-01T06:44:50.368Z,9.23
2018-05-01T06:46:00.559Z,9.2
2018-05-01T06:47:10.762Z,9.22
2018-05-01T06:48:22.136Z,9.27
2018-05-01T06:49:32.282Z,9.27
2018-05-01T06:50:42.539Z,9.15
2018-05-01T06:51:52.852Z,9.26
2018-05-01T06:53:03.045Z,9.27
2018-05-01T06:54:12.932Z,9.33
2018-05-01T06:55:23.051Z,9.34
2018-05-01T06:56:33.233Z,9.3
2018-05-01T06:57:43.626Z,9.38
2018-05-01T06:58:54.896Z,9.56
2018-05-01T07:00:04.916Z,9.52
2018-05-01T07:01:15.115Z,9.45
2018-05-01T07:02:24.995Z,9.38
2018-05-01T07:03:34.819Z,9.47
2018-05-01T07:04:44.854Z,9.47
2018-05-01T07:05:55.016Z,9.48
2018-05-01T07:07:05.175Z,9.38
2018-05-01T07:08:15.380Z,9.55
2018-05-01T07:09:25.557Z,9.5
2018-05-01T07:10:35.768Z,9.58
2018-05-01T07:11:45.977Z,9.62
2018-05-01T07:12:56.257Z,9.65
2018-05-01T07:14:06.439Z,9.63
2018-05-01T07:15:16.666Z,9.63
2018-05-01T07:16:26.829Z,9.62
2018-05-01T07:17:37.097Z,9.62
2018-05-01T07:18:47.387Z,9.8
2018-05-01T07:19:57.558Z,9.8
2018-05-01T07:21:07.849Z,9.75
2018-05-01T07:22:18.078Z,9.84
2018-05-01T07:23:27.953Z,9.8
2018-05-01T07:24:37.852Z,9.8
2018-05-01T07:25:48.164Z,9.71
2018-05-01T07:26:58.372Z,9.56
2018-05-01T07:28:08.173Z,9.52
2018-05-01T07:29:18.058Z,9.53
2018-05-01T07:30:27.682Z,9.38
2018-05-01T07:31:37.577Z,9.42
2018-05-01T07:32:47.463Z,9.42
2018-05-01T07:33:57.657Z,9.44
2018-05-01T07:35:07.965Z,9.42
2018-05-01T07:36:18.131Z,9.35
2018-05-01T07:37:27.749Z,9.4
2018-05-01T07:38:37.916Z,9.4
2018-05-01T07:39:47.711Z,9.44
2018-05-01T07:40:57.836Z,9.34
2018-05-01T07:42:07.707Z,9.45
2018-05-01T07:43:17.885Z,9.45
2018-05-01T07:44:28.069Z,9.37
2018-05-01T07:45:39.193Z,9.35
2018-05-01T07:46:49.343Z,9.34
2018-05-01T07:47:59.254Z,9.42
2018-05-01T07:49:09.745Z,9.37
2018-05-01T07:50:20.017Z,9.44
2018-05-01T07:51:30.203Z,9.44
2018-05-01T07:52:40.375Z,9.37
2018-05-01T07:53:50.621Z,9.35
2018-05-01T07:55:00.759Z,9.4
2018-05-01T07:56:10.916Z,9.45
2018-05-01T07:57:21.056Z,9.38
2018-05-01T07:58:31.205Z,9.53
2018-05-01T07:59:41.357Z,9.71
2018-05-01T08:00:51.571Z,9.83
2018-05-01T08:02:01.488Z,10.02
2018-05-01T08:03:11.632Z,10.05
2018-05-01T08:04:21.811Z,10
2018-05-01T08:05:31.989Z,10.13
2018-05-01T08:06:42.125Z,10.21
2018-05-01T08:07:52.275Z,10.22
2018-05-01T08:09:02.469Z,10.34
2018-05-01T08:10:12.630Z,10.3
2018-05-01T08:11:22.790Z,10.45
2018-05-01T08:12:32.948Z,10.61
2018-05-01T08:13:43.090Z,10.7
2018-05-01T08:14:53.339Z,10.72
2018-05-01T08:16:03.499Z,10.76
2018-05-01T08:17:13.395Z,10.84
2018-05-01T08:18:23.767Z,11.03
2018-05-01T08:19:34.019Z,11.21
2018-05-01T08:20:44.206Z,11.23
2018-05-01T08:21:54.465Z,11.12
2018-05-01T08:23:04.642Z,11.43
2018-05-01T08:24:14.924Z,11.9
2018-05-01T08:25:25.184Z,12.24
2018-05-01T08:26:35.416Z,12.62
2018-05-01T08:27:45.580Z,12.44
2018-05-01T08:28:55.762Z,12.68
2018-05-01T08:30:06.045Z,12.78
2018-05-01T08:31:16.265Z,12.75
2018-05-01T08:32:26.437Z,13.04
2018-05-01T08:33:36.662Z,13.13
2018-05-01T08:34:46.629Z,12.89
2018-05-01T08:35:56.788Z,12.68
2018-05-01T08:37:07.059Z,12.6
2018-05-01T08:38:17.230Z,12.68
2018-05-01T08:39:27.406Z,13.3
2018-05-01T08:40:37.606Z,13.46
2018-05-01T08:41:47.513Z,13.19
2018-05-01T08:42:57.676Z,12.96
2018-05-01T08:44:07.692Z,12.82
2018-05-01T08:45:18.147Z,12.63
2018-05-01T08:46:28.098Z,12.62
2018-05-01T08:47:38.024Z,12.71
2018-05-01T08:48:48.218Z,12.6
2018-05-01T08:49:58.407Z,13.12
2018-05-01T08:51:08.559Z,13.91
2018-05-01T08:52:18.752Z,14.51
2018-05-01T08:53:28.897Z,14.9
2018-05-01T08:54:39.076Z,15.35
2018-05-01T08:55:49.264Z,15.69
2018-05-01T08:56:59.433Z,15.82
2018-05-01T08:58:09.674Z,16.04
2018-05-01T08:59:19.859Z,16.1
2018-05-01T09:00:30.036Z,15.45
2018-05-01T09:01:40.234Z,15.35
2018-05-01T09:02:50.088Z,15.63
2018-05-01T09:04:00.246Z,15.89
2018-05-01T09:05:10.503Z,16.16
2018-05-01T09:06:20.698Z,16.17
2018-05-01T09:07:30.950Z,16.27
2018-05-01T09:08:41.324Z,16.36
2018-05-01T09:09:53.938Z,16.29
2018-05-01T09:12:21.831Z,16.34
2018-05-01T09:13:32.083Z,16.2
2018-05-01T09:15:56.661Z,16.86
2018-05-01T09:17:07.121Z,17.01
2018-05-01T09:18:17.969Z,16.99
2018-05-01T09:19:28.751Z,17.09
2018-05-01T09:20:38.808Z,17.11
2018-05-01T09:21:49.015Z,17.38
2018-05-01T09:22:59.183Z,17.35
2018-05-01T09:24:09.365Z,17.08
2018-05-01T09:25:19.491Z,16.98
2018-05-01T09:26:29.667Z,16.51
2018-05-01T09:27:40.068Z,16.39
2018-05-01T09:28:50.263Z,16.28
2018-05-01T09:30:00.443Z,16.47
2018-05-01T09:31:10.768Z,16.39
2018-05-01T09:32:20.690Z,16.09
2018-05-01T09:33:30.906Z,15.78
2018-05-01T09:34:41.100Z,15.45
2018-05-01T09:35:51.337Z,15.57
2018-05-01T09:37:01.445Z,15.82
2018-05-01T09:38:11.327Z,15.63
2018-05-01T09:39:21.521Z,15.48
2018-05-01T09:40:31.723Z,15.21
2018-05-01T09:41:41.938Z,14.87
2018-05-01T09:42:52.135Z,14.51
2018-05-01T09:44:02.431Z,14.04
2018-05-01T09:45:12.694Z,13.95
2018-05-01T09:46:22.880Z,13.61
2018-05-01T09:47:33.308Z,13.55
2018-05-01T09:48:43.731Z,13.34
2018-05-01T09:49:53.963Z,13.03
2018-05-01T09:51:04.177Z,12.82
2018-05-01T09:52:14.391Z,12.66
2018-05-01T09:53:24.780Z,12.56
2018-05-01T09:54:34.519Z,12.44
2018-05-01T09:55:44.747Z,12.32
2018-05-01T09:56:54.919Z,12.2
2018-05-01T09:58:05.153Z,12.04
2018-05-01T09:59:15.197Z,12.15
2018-05-01T10:00:25.349Z,12.09
2018-05-01T10:01:35.584Z,12.04
2018-05-01T10:02:45.606Z,11.89
2018-05-01T10:03:55.846Z,11.95
2018-05-01T10:05:06.144Z,11.9
2018-05-01T10:06:16.174Z,11.89
2018-05-01T10:07:26.426Z,11.86
2018-05-01T10:08:36.641Z,11.84
2018-05-01T10:09:46.834Z,11.76
2018-05-01T10:10:57.086Z,11.76
2018-05-01T10:12:07.239Z,11.74
2018-05-01T10:13:17.536Z,11.65
2018-05-01T10:14:27.751Z,11.46
2018-05-01T10:15:37.951Z,11.45
2018-05-01T10:16:48.158Z,11.48
2018-05-01T10:17:58.399Z,11.48
2018-05-01T10:19:09.617Z,11.43
2018-05-01T10:20:19.824Z,11.43
2018-05-01T10:21:29.846Z,11.4
2018-05-01T10:22:40.088Z,11.38
2018-05-01T10:23:50.031Z,11.39
2018-05-01T10:25:00.248Z,11.33
2018-05-01T10:26:10.176Z,11.28
2018-05-01T10:27:20.439Z,11.25
2018-05-01T10:28:30.677Z,11.3
2018-05-01T10:29:41.095Z,11.31
2018-05-01T10:30:51.287Z,11.31
2018-05-01T10:32:01.486Z,11.39
2018-05-01T10:33:11.677Z,11.33
2018-05-01T10:34:21.925Z,11.21
2018-05-01T10:35:31.778Z,11.12
2018-05-01T10:36:41.997Z,11.06
2018-05-01T10:37:51.885Z,11.03
2018-05-01T10:39:02.551Z,11.12
2018-05-01T10:40:12.890Z,10.97
2018-05-01T10:41:23.105Z,10.98
2018-05-01T10:42:33.371Z,11.05
2018-05-01T10:43:43.553Z,10.91
2018-05-01T10:44:53.712Z,10.9
2018-05-01T10:46:04.007Z,10.91
2018-05-01T10:47:15.171Z,10.87
2018-05-01T10:48:25.384Z,10.83
2018-05-01T10:49:35.598Z,10.83
2018-05-01T10:50:45.842Z,10.84
2018-05-01T10:51:56.145Z,10.84
2018-05-01T10:53:06.375Z,10.84
2018-05-01T10:54:17.528Z,10.8
2018-05-01T10:55:27.714Z,10.87
2018-05-01T10:56:37.926Z,10.76
2018-05-01T10:57:48.161Z,10.73
2018-05-01T10:58:58.465Z,10.76
2018-05-01T11:00:08.699Z,10.7
2018-05-01T11:01:18.903Z,10.7
2018-05-01T11:02:29.126Z,10.69
2018-05-01T11:03:39.134Z,10.72
2018-05-01T11:04:49.344Z,10.8
2018-05-01T11:05:59.669Z,10.85
2018-05-01T11:07:09.924Z,10.92
2018-05-01T11:08:20.176Z,10.9
2018-05-01T11:09:30.485Z,11.03
2018-05-01T11:10:40.591Z,11.02
2018-05-01T11:11:51.074Z,11.02
2018-05-01T11:13:01.324Z,10.98
2018-05-01T11:14:11.532Z,10.95
2018-05-01T11:15:21.719Z,11.08
2018-05-01T11:16:31.960Z,11.03
2018-05-01T11:17:42.161Z,11.08
2018-05-01T11:18:52.343Z,11.08
2018-05-01T11:20:02.529Z,11.1
2018-05-01T11:21:12.496Z,11.1
2018-05-01T11:22:22.851Z,11.21
2018-05-01T11:23:33.093Z,11.12
2018-05-01T11:24:43.486Z,11.12
2018-05-01T11:25:55.250Z,11.08
2018-05-01T11:27:05.661Z,11.08
2018-05-01T11:28:15.842Z,11.16
2018-05-01T11:29:26.101Z,11.24
2018-05-01T11:30:36.029Z,11.34
2018-05-01T11:31:46.250Z,11.39
2018-05-01T11:32:56.461Z,11.62
2018-05-01T11:34:06.763Z,11.71
2018-05-01T11:35:16.956Z,11.69
2018-05-01T11:36:27.118Z,11.8
2018-05-01T11:37:37.322Z,11.76
2018-05-01T11:38:47.562Z,11.66
2018-05-01T11:39:57.777Z,11.61
2018-05-01T11:41:08.032Z,11.65
2018-05-01T11:42:18.263Z,11.61
2018-05-01T11:43:28.467Z,11.58
2018-05-01T11:44:38.638Z,11.59
2018-05-01T11:45:49.048Z,11.59
2018-05-01T11:46:59.306Z,11.62
2018-05-01T11:48:09.526Z,11.59
2018-05-01T11:49:19.814Z,11.58
2018-05-01T11:50:30.311Z,11.39
2018-05-01T11:51:40.024Z,11.34
2018-05-01T11:52:49.987Z,11.38
2018-05-01T11:54:00.304Z,11.4
2018-05-01T11:55:10.524Z,11.39
2018-05-01T11:56:20.705Z,11.39
2018-05-01T11:57:31.021Z,11.4
2018-05-01T11:58:41.360Z,11.49
2018-05-01T11:59:51.559Z,11.45
2018-05-01T12:01:01.762Z,11.62
2018-05-01T12:02:12.020Z,11.74
2018-05-01T12:03:22.328Z,12.04
2018-05-01T12:04:32.797Z,12.48
2018-05-01T12:05:43.004Z,12.95
2018-05-01T12:06:53.250Z,13.38
2018-05-01T12:08:03.445Z,13.58
2018-05-01T12:09:13.728Z,13.66
2018-05-01T12:10:23.953Z,13.95
2018-05-01T12:11:34.405Z,14.11
2018-05-01T12:12:44.882Z,14.37
2018-05-01T12:13:55.052Z,14.54
2018-05-01T12:15:04.984Z,14.52
2018-05-01T12:16:14.963Z,14.58
2018-05-01T12:17:25.882Z,14.56
2018-05-01T12:18:36.455Z,14.44
2018-05-01T12:19:47.095Z,14.21
2018-05-01T12:20:57.055Z,14.19
2018-05-01T12:22:07.322Z,14.13
2018-05-01T12:23:17.616Z,14.26
2018-05-01T12:24:28.067Z,14.24
2018-05-01T12:25:38.479Z,14.26
2018-05-01T12:26:48.738Z,14.21
2018-05-01T12:27:58.993Z,14.1
2018-05-01T12:29:09.198Z,14.02
2018-05-01T12:30:19.774Z,13.81
2018-05-01T12:31:29.718Z,13.59
2018-05-01T12:32:39.916Z,13.41
2018-05-01T12:33:50.174Z,13.36
2018-05-01T12:35:00.518Z,13.27
2018-05-01T12:36:10.764Z,13.3
2018-05-01T12:37:20.982Z,13.3
2018-05-01T12:38:30.973Z,13.21
2018-05-01T12:39:41.506Z,13.01
2018-05-01T12:40:51.854Z,13.03
2018-05-01T12:42:02.694Z,12.95
2018-05-01T12:43:13.043Z,12.97
2018-05-01T12:44:23.466Z,13.06
2018-05-01T12:45:33.679Z,13.11
2018-05-01T12:46:43.709Z,13.13
2018-05-01T12:47:53.944Z,13.16
2018-05-01T12:49:03.882Z,13.16
2018-05-01T12:50:13.946Z,13.09
2018-05-01T12:51:24.331Z,13.06
2018-05-01T12:52:34.536Z,12.93
2018-05-01T12:53:44.946Z,12.92
2018-05-01T12:54:55.764Z,12.88
2018-05-01T12:56:07.029Z,12.81
2018-05-01T12:57:17.393Z,12.81
2018-05-01T12:58:27.962Z,12.75
2018-05-01T12:59:38.372Z,12.81
2018-05-01T13:00:48.658Z,12.72
2018-05-01T13:01:58.902Z,12.71
2018-05-01T13:03:09.123Z,12.75
2018-05-01T13:04:19.361Z,12.7
2018-05-01T13:05:29.682Z,12.84
2018-05-01T13:06:40.170Z,12.85
2018-05-01T13:07:50.389Z,13.06
2018-05-01T13:09:00.388Z,13.08
2018-05-01T13:10:10.627Z,13.08
2018-05-01T13:11:20.852Z,12.97
2018-05-01T13:12:31.155Z,12.96
2018-05-01T13:13:41.676Z,12.95
2018-05-01T13:14:51.940Z,13.08
2018-05-01T13:16:02.222Z,13.08
2018-05-01T13:17:12.339Z,13.27
2018-05-01T13:18:22.654Z,13.34
2018-05-01T13:19:32.951Z,13.4
2018-05-01T13:20:43.360Z,13.51
2018-05-01T13:21:53.593Z,13.41
2018-05-01T13:23:03.274Z,13.41
2018-05-01T13:24:13.608Z,13.59
2018-05-01T13:25:23.556Z,13.63
2018-05-01T13:26:33.794Z,13.61
2018-05-01T13:27:44.060Z,13.51
2018-05-01T13:28:54.356Z,13.54
2018-05-01T13:30:04.537Z,13.41
2018-05-01T13:31:14.735Z,13.34
2018-05-01T13:32:25.027Z,13.34
2018-05-01T13:33:35.609Z,13.19
2018-05-01T13:34:45.793Z,13.16
2018-05-01T13:35:55.975Z,13.13
2018-05-01T13:37:06.167Z,13.06
2018-05-01T13:38:16.364Z,13.11
2018-05-01T13:39:26.671Z,13.01
2018-05-01T13:40:36.911Z,13.08
2018-05-01T13:41:47.190Z,13.04
2018-05-01T13:42:57.400Z,12.97
2018-05-01T13:44:07.658Z,13.06
2018-05-01T13:45:18.024Z,12.97
2018-05-01T13:46:28.407Z,13.09
2018-05-01T13:47:38.667Z,13.09
2018-05-01T13:48:48.682Z,13.22
2018-05-01T13:49:59.019Z,13.23
2018-05-01T13:51:09.306Z,13.26
2018-05-01T13:52:19.621Z,13.23
2018-05-01T13:53:29.803Z,13.23
2018-05-01T13:54:40.115Z,13.16
2018-05-01T13:55:50.380Z,13.16
2018-05-01T13:57:00.599Z,13.13
2018-05-01T13:58:10.586Z,13.15
2018-05-01T13:59:20.949Z,13.16
2018-05-01T14:00:31.155Z,13.12
2018-05-01T14:01:41.575Z,13
2018-05-01T14:02:51.758Z,13.04
2018-05-01T14:04:01.967Z,13.06
2018-05-01T14:05:12.178Z,13.01
2018-05-01T14:06:22.523Z,12.96
2018-05-01T14:07:33.122Z,12.95
2018-05-01T14:08:43.308Z,12.97
2018-05-01T14:09:53.510Z,12.95
2018-05-01T14:11:04.033Z,12.96
2018-05-01T14:12:14.632Z,13.01
2018-05-01T14:13:24.839Z,13.13
2018-05-01T14:14:35.089Z,13.19
2018-05-01T14:15:45.579Z,13.22
2018-05-01T14:16:55.755Z,13.3
2018-05-01T14:18:05.972Z,13.26
2018-05-01T14:19:16.360Z,13.29
2018-05-01T14:20:26.684Z,13.34
2018-05-01T14:21:36.619Z,13.29
2018-05-01T14:22:46.973Z,13.36
2018-05-01T14:23:57.193Z,13.34
2018-05-01T14:25:07.470Z,13.37
2018-05-01T14:26:17.311Z,13.34
2018-05-01T14:27:27.507Z,13.26
2018-05-01T14:28:37.738Z,13.12
2018-05-01T14:29:47.945Z,13.09
2018-05-01T14:30:58.182Z,12.89
2018-05-01T14:32:08.366Z,12.81
2018-05-01T14:33:18.529Z,12.8
2018-05-01T14:34:28.797Z,12.74
2018-05-01T14:35:38.989Z,12.78
2018-05-01T14:36:49.379Z,12.71
2018-05-01T14:37:59.679Z,12.72
2018-05-01T14:39:09.679Z,12.77
2018-05-01T14:40:19.982Z,12.59
2018-05-01T14:41:30.249Z,12.62
2018-05-01T14:42:40.079Z,12.59
2018-05-01T14:43:50.397Z,12.59
2018-05-01T14:45:00.637Z,12.59
2018-05-01T14:46:10.856Z,12.56
2018-05-01T14:47:21.091Z,12.56
2018-05-01T14:48:31.345Z,12.55
2018-05-01T14:49:41.320Z,12.59
2018-05-01T14:50:52.112Z,12.57
2018-05-01T14:52:02.378Z,12.57
2018-05-01T14:53:12.613Z,12.56
2018-05-01T14:54:22.884Z,12.59
2018-05-01T14:55:32.895Z,12.57
2018-05-01T14:56:44.162Z,12.59
2018-05-01T14:57:54.399Z,12.57
2018-05-01T14:59:05.654Z,12.64
2018-05-01T15:00:15.878Z,12.66
2018-05-01T15:01:26.400Z,12.74
2018-05-01T15:02:36.983Z,12.82
2018-05-01T15:03:47.305Z,12.82
2018-05-01T15:04:57.940Z,12.81
2018-05-01T15:06:08.293Z,12.93
2018-05-01T15:07:18.593Z,12.92
2018-05-01T15:08:28.850Z,12.97
2018-05-01T15:09:38.873Z,12.97
2018-05-01T15:10:49.337Z,12.95
2018-05-01T15:11:59.968Z,12.95
2018-05-01T15:13:10.368Z,12.93
2018-05-01T15:14:21.818Z,12.92
2018-05-01T15:15:32.120Z,13.03
2018-05-01T15:16:42.136Z,13.03
2018-05-01T15:17:52.442Z,13.08
2018-05-01T15:19:02.846Z,13.26
2018-05-01T15:20:13.270Z,13.23
2018-05-01T15:21:23.661Z,13.31